sensor_id;sensor_type;location;lat;lon;timestamp;P1;durP1;ratioP1;P2;durP2;ratioP2
51226;SDS011;42714;48.260;10.980;2024-03-06T00:02:29;110.8;;;36.8;;
51226;SDS011;42714;48.260;10.980;2024-03-06T00:07:29;113.1;;;37.4;;
51226;SDS011;42714;48.260;10.980;2024-03-06T00:12:29;111.0;;;37.6;;
51226;SDS011;42714;48.260;10.980;2024-03-06T00:17:29;120.3;;;37.6;;
51226;SDS011;42714;48.260;10.980;2024-03-06T00:22:29;117.0;;;38.0;;
51226;SDS011;42714;48.260;10.980;2024-03-06T00:27:29;117.6;;;38.2;;
51226;SDS011;42714;48.260;10.980;2024-03-06T00:32:29;126.7;;;38.5;;
51226;SDS011;42714;48.260;10.980;2024-03-06T00:37:29;140.5;;;41.2;;
51226;SDS011;42714;48.260;10.980;2024-03-06T00:42:29;149.1;;;43.0;;
51226;SDS011;42714;48.260;10.980;2024-03-06T00:47:29;146.0;;;43.0;;
51226;SDS011;42714;48.260;10.980;2024-03-06T00:52:29;126.1;;;42.4;;
51226;SDS011;42714;48.260;10.980;2024-03-06T00:57:29;149.3;;;44.5;;
51226;SDS011;42714;48.260;10.980;2024-03-06T01:02:29;145.6;;;44.6;;
51226;SDS011;42714;48.260;10.980;2024-03-06T01:07:29;148.7;;;44.2;;
51226;SDS011;42714;48.260;10.980;2024-03-06T01:12:29;153.5;;;44.9;;
51226;SDS011;42714;48.260;10.980;2024-03-06T01:17:29;156.3;;;45.3;;
51226;SDS011;42714;48.260;10.980;2024-03-06T01:27:29;132.7;;;41.8;;
51226;SDS011;42714;48.260;10.980;2024-03-06T01:32:29;132.3;;;42.1;;
51226;SDS011;42714;48.260;10.980;2024-03-06T01:37:29;138.3;;;42.8;;
51226;SDS011;42714;48.260;10.980;2024-03-06T01:42:29;134.8;;;41.9;;
51226;SDS011;42714;48.260;10.980;2024-03-06T01:47:29;139.1;;;42.1;;
51226;SDS011;42714;48.260;10.980;2024-03-06T01:52:29;122.3;;;39.0;;
51226;SDS011;42714;48.260;10.980;2024-03-06T01:57:29;82.7;;;31.0;;
51226;SDS011;42714;48.260;10.980;2024-03-06T02:02:29;94.9;;;33.0;;
51226;SDS011;42714;48.260;10.980;2024-03-06T02:07:29;126.4;;;40.7;;
51226;SDS011;42714;48.260;10.980;2024-03-06T02:12:29;113.0;;;36.4;;
51226;SDS011;42714;48.260;10.980;2024-03-06T02:17:29;94.8;;;31.5;;
51226;SDS011;42714;48.260;10.980;2024-03-06T02:22:29;91.1;;;33.0;;
51226;SDS011;42714;48.260;10.980;2024-03-06T02:27:29;76.4;;;30.1;;
51226;SDS011;42714;48.260;10.980;2024-03-06T02:32:29;86.8;;;29.9;;
51226;SDS011;42714;48.260;10.980;2024-03-06T02:37:29;76.3;;;27.7;;
51226;SDS011;42714;48.260;10.980;2024-03-06T02:42:29;75.8;;;26.1;;
51226;SDS011;42714;48.260;10.980;2024-03-06T02:47:29;79.1;;;26.6;;
51226;SDS011;42714;48.260;10.980;2024-03-06T02:52:29;81.8;;;27.9;;
51226;SDS011;42714;48.260;10.980;2024-03-06T02:57:29;79.1;;;27.1;;
51226;SDS011;42714;48.260;10.980;2024-03-06T03:02:29;80.0;;;27.8;;
51226;SDS011;42714;48.260;10.980;2024-03-06T03:07:29;89.5;;;28.7;;
51226;SDS011;42714;48.260;10.980;2024-03-06T03:12:29;85.7;;;27.9;;
51226;SDS011;42714;48.260;10.980;2024-03-06T03:17:29;90.6;;;29.0;;
51226;SDS011;42714;48.260;10.980;2024-03-06T03:22:29;93.1;;;31.6;;
51226;SDS011;42714;48.260;10.980;2024-03-06T03:27:29;107.9;;;31.7;;
51226;SDS011;42714;48.260;10.980;2024-03-06T03:32:29;104.5;;;32.2;;
51226;SDS011;42714;48.260;10.980;2024-03-06T03:37:29;115.9;;;33.6;;
51226;SDS011;42714;48.260;10.980;2024-03-06T03:42:29;99.5;;;31.5;;
51226;SDS011;42714;48.260;10.980;2024-03-06T03:47:29;120.5;;;34.8;;
51226;SDS011;42714;48.260;10.980;2024-03-06T03:52:29;103.7;;;33.2;;
51226;SDS011;42714;48.260;10.980;2024-03-06T03:57:29;115.3;;;35.1;;
51226;SDS011;42714;48.260;10.980;2024-03-06T04:02:29;119.1;;;35.7;;
51226;SDS011;42714;48.260;10.980;2024-03-06T04:07:29;122.5;;;37.6;;
51226;SDS011;42714;48.260;10.980;2024-03-06T04:12:29;139.1;;;39.5;;
51226;SDS011;42714;48.260;10.980;2024-03-06T04:17:29;125.2;;;37.9;;
51226;SDS011;42714;48.260;10.980;2024-03-06T04:22:29;130.5;;;38.6;;
51226;SDS011;42714;48.260;10.980;2024-03-06T04:27:29;135.4;;;37.6;;
51226;SDS011;42714;48.260;10.980;2024-03-06T04:32:29;140.8;;;38.9;;
51226;SDS011;42714;48.260;10.980;2024-03-06T04:37:29;152.0;;;42.0;;
51226;SDS011;42714;48.260;10.980;2024-03-06T04:42:29;145.1;;;41.6;;
51226;SDS011;42714;48.260;10.980;2024-03-06T04:47:29;131.9;;;38.4;;
51226;SDS011;42714;48.260;10.980;2024-03-06T04:52:29;136.5;;;39.1;;
51226;SDS011;42714;48.260;10.980;2024-03-06T04:57:29;154.1;;;42.5;;
51226;SDS011;42714;48.260;10.980;2024-03-06T05:02:29;141.6;;;40.8;;
51226;SDS011;42714;48.260;10.980;2024-03-06T05:07:29;151.3;;;43.5;;
51226;SDS011;42714;48.260;10.980;2024-03-06T05:12:29;181.0;;;44.5;;
51226;SDS011;42714;48.260;10.980;2024-03-06T05:17:29;156.4;;;43.5;;
51226;SDS011;42714;48.260;10.980;2024-03-06T05:22:29;166.3;;;45.3;;
51226;SDS011;42714;48.260;10.980;2024-03-06T05:27:29;180.0;;;45.8;;
51226;SDS011;42714;48.260;10.980;2024-03-06T05:32:29;165.0;;;43.2;;
51226;SDS011;42714;48.260;10.980;2024-03-06T05:37:29;137.9;;;41.0;;
51226;SDS011;42714;48.260;10.980;2024-03-06T05:42:29;138.6;;;42.8;;
51226;SDS011;42714;48.260;10.980;2024-03-06T05:47:29;147.5;;;41.7;;
51226;SDS011;42714;48.260;10.980;2024-03-06T05:52:29;159.3;;;42.5;;
51226;SDS011;42714;48.260;10.980;2024-03-06T05:57:29;152.3;;;41.5;;
51226;SDS011;42714;48.260;10.980;2024-03-06T06:02:29;162.1;;;43.9;;
51226;SDS011;42714;48.260;10.980;2024-03-06T06:07:29;135.6;;;39.9;;
51226;SDS011;42714;48.260;10.980;2024-03-06T06:12:29;173.3;;;42.3;;
51226;SDS011;42714;48.260;10.980;2024-03-06T06:17:29;153.8;;;41.9;;
51226;SDS011;42714;48.260;10.980;2024-03-06T06:22:29;144.2;;;42.0;;
51226;SDS011;42714;48.260;10.980;2024-03-06T06:27:29;155.3;;;42.2;;
51226;SDS011;42714;48.260;10.980;2024-03-06T06:32:29;151.9;;;41.2;;
51226;SDS011;42714;48.260;10.980;2024-03-06T06:37:29;166.7;;;44.4;;
51226;SDS011;42714;48.260;10.980;2024-03-06T06:42:29;159.9;;;43.0;;
51226;SDS011;42714;48.260;10.980;2024-03-06T06:47:29;169.0;;;44.5;;
51226;SDS011;42714;48.260;10.980;2024-03-06T06:52:29;180.6;;;44.8;;
51226;SDS011;42714;48.260;10.980;2024-03-06T06:57:29;177.1;;;45.6;;
51226;SDS011;42714;48.260;10.980;2024-03-06T07:02:29;172.2;;;43.8;;
51226;SDS011;42714;48.260;10.980;2024-03-06T07:07:29;144.4;;;37.7;;
51226;SDS011;42714;48.260;10.980;2024-03-06T07:12:29;133.1;;;36.8;;
51226;SDS011;42714;48.260;10.980;2024-03-06T07:17:29;148.4;;;44.8;;
51226;SDS011;42714;48.260;10.980;2024-03-06T07:22:29;140.0;;;34.5;;
51226;SDS011;42714;48.260;10.980;2024-03-06T07:27:29;124.0;;;31.9;;
51226;SDS011;42714;48.260;10.980;2024-03-06T07:32:29;134.7;;;35.3;;
51226;SDS011;42714;48.260;10.980;2024-03-06T07:37:29;115.9;;;31.7;;
51226;SDS011;42714;48.260;10.980;2024-03-06T07:42:29;135.8;;;34.3;;
51226;SDS011;42714;48.260;10.980;2024-03-06T07:47:29;139.0;;;34.9;;
51226;SDS011;42714;48.260;10.980;2024-03-06T07:52:29;161.7;;;41.8;;
51226;SDS011;42714;48.260;10.980;2024-03-06T07:57:29;171.6;;;39.1;;
51226;SDS011;42714;48.260;10.980;2024-03-06T08:02:29;157.6;;;38.0;;
51226;SDS011;42714;48.260;10.980;2024-03-06T08:07:29;151.2;;;38.6;;
51226;SDS011;42714;48.260;10.980;2024-03-06T08:12:29;133.6;;;36.0;;
51226;SDS011;42714;48.260;10.980;2024-03-06T08:17:29;126.2;;;35.7;;
51226;SDS011;42714;48.260;10.980;2024-03-06T08:22:29;138.7;;;37.6;;
51226;SDS011;42714;48.260;10.980;2024-03-06T08:27:29;117.2;;;32.4;;
51226;SDS011;42714;48.260;10.980;2024-03-06T08:32:30;85.2;;;28.3;;
51226;SDS011;42714;48.260;10.980;2024-03-06T08:37:29;76.7;;;25.2;;
51226;SDS011;42714;48.260;10.980;2024-03-06T08:42:29;88.8;;;26.9;;
51226;SDS011;42714;48.260;10.980;2024-03-06T08:47:29;65.4;;;23.8;;
51226;SDS011;42714;48.260;10.980;2024-03-06T08:52:29;62.0;;;20.6;;
51226;SDS011;42714;48.260;10.980;2024-03-06T08:57:29;63.1;;;21.0;;
51226;SDS011;42714;48.260;10.980;2024-03-06T09:02:29;64.4;;;21.5;;
51226;SDS011;42714;48.260;10.980;2024-03-06T09:07:29;71.2;;;23.2;;
51226;SDS011;42714;48.260;10.980;2024-03-06T09:12:29;60.4;;;19.6;;
51226;SDS011;42714;48.260;10.980;2024-03-06T09:17:29;57.0;;;19.4;;
51226;SDS011;42714;48.260;10.980;2024-03-06T09:22:29;55.5;;;20.0;;
51226;SDS011;42714;48.260;10.980;2024-03-06T09:27:29;50.9;;;17.9;;
51226;SDS011;42714;48.260;10.980;2024-03-06T09:32:29;60.1;;;21.1;;
51226;SDS011;42714;48.260;10.980;2024-03-06T09:37:29;62.0;;;21.7;;
51226;SDS011;42714;48.260;10.980;2024-03-06T09:42:29;61.0;;;20.4;;
51226;SDS011;42714;48.260;10.980;2024-03-06T09:47:29;63.7;;;22.4;;
51226;SDS011;42714;48.260;10.980;2024-03-06T09:52:29;51.4;;;19.7;;
51226;SDS011;42714;48.260;10.980;2024-03-06T09:57:29;48.3;;;18.8;;
51226;SDS011;42714;48.260;10.980;2024-03-06T10:02:31;43.5;;;18.0;;
51226;SDS011;42714;48.260;10.980;2024-03-06T10:07:29;52.4;;;21.2;;
51226;SDS011;42714;48.260;10.980;2024-03-06T10:12:29;51.7;;;19.3;;
51226;SDS011;42714;48.260;10.980;2024-03-06T10:17:29;57.3;;;22.1;;
51226;SDS011;42714;48.260;10.980;2024-03-06T10:22:29;65.3;;;24.8;;
51226;SDS011;42714;48.260;10.980;2024-03-06T10:27:29;60.4;;;24.2;;
51226;SDS011;42714;48.260;10.980;2024-03-06T10:32:30;54.0;;;21.8;;
51226;SDS011;42714;48.260;10.980;2024-03-06T10:37:29;58.3;;;23.0;;
51226;SDS011;42714;48.260;10.980;2024-03-06T10:42:29;57.4;;;24.2;;
51226;SDS011;42714;48.260;10.980;2024-03-06T10:47:29;68.3;;;25.7;;
51226;SDS011;42714;48.260;10.980;2024-03-06T10:52:30;68.5;;;26.8;;
51226;SDS011;42714;48.260;10.980;2024-03-06T10:57:30;64.0;;;26.4;;
51226;SDS011;42714;48.260;10.980;2024-03-06T11:02:29;63.2;;;24.3;;
51226;SDS011;42714;48.260;10.980;2024-03-06T11:07:29;63.1;;;23.0;;
51226;SDS011;42714;48.260;10.980;2024-03-06T11:17:29;61.0;;;25.4;;
51226;SDS011;42714;48.260;10.980;2024-03-06T11:27:29;67.2;;;26.6;;
51226;SDS011;42714;48.260;10.980;2024-03-06T11:32:29;70.6;;;27.6;;
51226;SDS011;42714;48.260;10.980;2024-03-06T11:37:29;69.3;;;27.0;;
51226;SDS011;42714;48.260;10.980;2024-03-06T11:47:29;64.4;;;24.3;;
51226;SDS011;42714;48.260;10.980;2024-03-06T11:52:29;66.8;;;27.2;;
51226;SDS011;42714;48.260;10.980;2024-03-06T11:57:29;67.3;;;26.8;;
51226;SDS011;42714;48.260;10.980;2024-03-06T12:02:29;68.1;;;27.6;;
51226;SDS011;42714;48.260;10.980;2024-03-06T12:07:29;69.4;;;27.4;;
51226;SDS011;42714;48.260;10.980;2024-03-06T12:12:29;61.2;;;23.0;;
51226;SDS011;42714;48.260;10.980;2024-03-06T12:17:29;76.5;;;27.8;;
51226;SDS011;42714;48.260;10.980;2024-03-06T12:22:29;75.3;;;26.9;;
51226;SDS011;42714;48.260;10.980;2024-03-06T12:27:29;69.3;;;24.3;;
51226;SDS011;42714;48.260;10.980;2024-03-06T12:32:29;63.9;;;22.1;;
51226;SDS011;42714;48.260;10.980;2024-03-06T12:37:30;68.6;;;23.8;;
51226;SDS011;42714;48.260;10.980;2024-03-06T12:42:30;35.1;;;14.4;;
51226;SDS011;42714;48.260;10.980;2024-03-06T12:47:29;37.2;;;13.0;;
51226;SDS011;42714;48.260;10.980;2024-03-06T12:52:29;35.7;;;15.4;;
51226;SDS011;42714;48.260;10.980;2024-03-06T12:57:29;41.8;;;16.2;;
51226;SDS011;42714;48.260;10.980;2024-03-06T13:02:29;33.5;;;12.3;;
51226;SDS011;42714;48.260;10.980;2024-03-06T13:07:29;307.4;;;120.7;;
51226;SDS011;42714;48.260;10.980;2024-03-06T13:12:29;45.9;;;17.1;;
51226;SDS011;42714;48.260;10.980;2024-03-06T13:17:29;31.7;;;13.7;;
51226;SDS011;42714;48.260;10.980;2024-03-06T13:22:29;32.4;;;12.5;;
51226;SDS011;42714;48.260;10.980;2024-03-06T13:27:30;34.9;;;12.8;;
51226;SDS011;42714;48.260;10.980;2024-03-06T13:32:29;32.8;;;12.9;;
51226;SDS011;42714;48.260;10.980;2024-03-06T13:37:29;32.0;;;11.8;;
51226;SDS011;42714;48.260;10.980;2024-03-06T13:42:29;30.5;;;10.8;;
51226;SDS011;42714;48.260;10.980;2024-03-06T13:47:30;30.5;;;11.7;;
51226;SDS011;42714;48.260;10.980;2024-03-06T13:52:29;31.3;;;12.1;;
51226;SDS011;42714;48.260;10.980;2024-03-06T13:57:30;35.1;;;14.6;;
51226;SDS011;42714;48.260;10.980;2024-03-06T14:02:29;24.8;;;10.4;;
51226;SDS011;42714;48.260;10.980;2024-03-06T14:07:29;25.0;;;10.1;;
51226;SDS011;42714;48.260;10.980;2024-03-06T14:12:29;25.3;;;10.0;;
51226;SDS011;42714;48.260;10.980;2024-03-06T14:17:29;24.8;;;9.6;;
51226;SDS011;42714;48.260;10.980;2024-03-06T14:22:30;19.5;;;8.7;;
51226;SDS011;42714;48.260;10.980;2024-03-06T14:27:30;20.3;;;8.7;;
51226;SDS011;42714;48.260;10.980;2024-03-06T14:32:29;20.8;;;8.4;;
51226;SDS011;42714;48.260;10.980;2024-03-06T14:37:29;18.1;;;7.3;;
51226;SDS011;42714;48.260;10.980;2024-03-06T14:42:29;17.4;;;7.5;;
51226;SDS011;42714;48.260;10.980;2024-03-06T14:47:29;17.6;;;7.8;;
51226;SDS011;42714;48.260;10.980;2024-03-06T14:52:29;17.4;;;7.2;;
51226;SDS011;42714;48.260;10.980;2024-03-06T14:57:29;18.7;;;7.5;;
51226;SDS011;42714;48.260;10.980;2024-03-06T15:02:29;18.4;;;8.6;;
51226;SDS011;42714;48.260;10.980;2024-03-06T15:07:29;20.6;;;8.3;;
51226;SDS011;42714;48.260;10.980;2024-03-06T15:12:29;19.5;;;7.7;;
51226;SDS011;42714;48.260;10.980;2024-03-06T15:17:29;16.0;;;6.7;;
51226;SDS011;42714;48.260;10.980;2024-03-06T15:22:29;17.8;;;7.2;;
51226;SDS011;42714;48.260;10.980;2024-03-06T15:27:29;19.6;;;7.9;;
51226;SDS011;42714;48.260;10.980;2024-03-06T15:32:29;20.8;;;7.8;;
51226;SDS011;42714;48.260;10.980;2024-03-06T15:37:30;16.2;;;6.6;;
51226;SDS011;42714;48.260;10.980;2024-03-06T15:42:29;20.2;;;7.7;;
51226;SDS011;42714;48.260;10.980;2024-03-06T15:47:30;16.1;;;6.7;;
51226;SDS011;42714;48.260;10.980;2024-03-06T15:52:30;15.7;;;7.0;;
51226;SDS011;42714;48.260;10.980;2024-03-06T15:57:29;14.8;;;6.4;;
51226;SDS011;42714;48.260;10.980;2024-03-06T16:02:29;17.7;;;7.0;;
51226;SDS011;42714;48.260;10.980;2024-03-06T16:07:29;20.1;;;8.0;;
51226;SDS011;42714;48.260;10.980;2024-03-06T16:12:30;18.3;;;7.9;;
51226;SDS011;42714;48.260;10.980;2024-03-06T16:17:30;16.5;;;7.6;;
51226;SDS011;42714;48.260;10.980;2024-03-06T16:22:30;18.7;;;7.1;;
51226;SDS011;42714;48.260;10.980;2024-03-06T16:27:30;17.0;;;7.6;;
51226;SDS011;42714;48.260;10.980;2024-03-06T16:32:30;17.2;;;8.0;;
51226;SDS011;42714;48.260;10.980;2024-03-06T16:37:30;24.1;;;9.0;;
51226;SDS011;42714;48.260;10.980;2024-03-06T16:42:30;23.8;;;9.5;;
51226;SDS011;42714;48.260;10.980;2024-03-06T16:47:30;46.0;;;16.3;;
51226;SDS011;42714;48.260;10.980;2024-03-06T16:52:30;21.0;;;8.3;;
51226;SDS011;42714;48.260;10.980;2024-03-06T16:57:30;20.1;;;8.6;;
51226;SDS011;42714;48.260;10.980;2024-03-06T17:02:30;19.8;;;9.0;;
51226;SDS011;42714;48.260;10.980;2024-03-06T17:07:30;22.9;;;9.0;;
51226;SDS011;42714;48.260;10.980;2024-03-06T17:12:30;25.0;;;9.4;;
51226;SDS011;42714;48.260;10.980;2024-03-06T17:17:30;30.3;;;10.7;;
51226;SDS011;42714;48.260;10.980;2024-03-06T17:22:30;25.9;;;9.7;;
51226;SDS011;42714;48.260;10.980;2024-03-06T17:27:30;26.5;;;10.2;;
51226;SDS011;42714;48.260;10.980;2024-03-06T17:32:30;23.8;;;9.3;;
51226;SDS011;42714;48.260;10.980;2024-03-06T17:37:30;25.3;;;10.1;;
51226;SDS011;42714;48.260;10.980;2024-03-06T17:42:30;22.7;;;9.6;;
51226;SDS011;42714;48.260;10.980;2024-03-06T17:47:30;23.2;;;9.4;;
51226;SDS011;42714;48.260;10.980;2024-03-06T17:52:30;26.1;;;11.3;;
51226;SDS011;42714;48.260;10.980;2024-03-06T17:57:30;27.2;;;11.9;;
51226;SDS011;42714;48.260;10.980;2024-03-06T18:02:30;23.4;;;10.7;;
51226;SDS011;42714;48.260;10.980;2024-03-06T18:07:30;39.7;;;18.1;;
51226;SDS011;42714;48.260;10.980;2024-03-06T18:12:30;27.1;;;12.5;;
51226;SDS011;42714;48.260;10.980;2024-03-06T18:17:30;27.1;;;11.3;;
51226;SDS011;42714;48.260;10.980;2024-03-06T18:22:30;26.6;;;12.0;;
51226;SDS011;42714;48.260;10.980;2024-03-06T18:27:30;30.3;;;13.7;;
51226;SDS011;42714;48.260;10.980;2024-03-06T18:32:30;51.0;;;18.6;;
51226;SDS011;42714;48.260;10.980;2024-03-06T18:37:30;36.7;;;12.8;;
51226;SDS011;42714;48.260;10.980;2024-03-06T18:42:30;31.8;;;12.2;;
51226;SDS011;42714;48.260;10.980;2024-03-06T18:47:30;24.6;;;11.5;;
51226;SDS011;42714;48.260;10.980;2024-03-06T18:52:30;24.6;;;11.4;;
51226;SDS011;42714;48.260;10.980;2024-03-06T18:57:30;27.1;;;12.5;;
51226;SDS011;42714;48.260;10.980;2024-03-06T19:02:30;32.1;;;13.7;;
51226;SDS011;42714;48.260;10.980;2024-03-06T19:07:30;40.1;;;17.1;;
51226;SDS011;42714;48.260;10.980;2024-03-06T19:12:30;25.6;;;10.6;;
51226;SDS011;42714;48.260;10.980;2024-03-06T19:17:30;27.3;;;11.7;;
51226;SDS011;42714;48.260;10.980;2024-03-06T19:22:30;29.4;;;12.7;;
51226;SDS011;42714;48.260;10.980;2024-03-06T19:27:30;30.6;;;13.5;;
51226;SDS011;42714;48.260;10.980;2024-03-06T19:32:30;32.5;;;13.3;;
51226;SDS011;42714;48.260;10.980;2024-03-06T19:37:30;29.6;;;13.1;;
51226;SDS011;42714;48.260;10.980;2024-03-06T19:42:30;47.8;;;17.9;;
51226;SDS011;42714;48.260;10.980;2024-03-06T19:47:31;93.0;;;30.1;;
51226;SDS011;42714;48.260;10.980;2024-03-06T19:52:30;33.9;;;13.4;;
51226;SDS011;42714;48.260;10.980;2024-03-06T19:57:30;34.3;;;14.8;;
51226;SDS011;42714;48.260;10.980;2024-03-06T20:02:30;36.9;;;14.7;;
51226;SDS011;42714;48.260;10.980;2024-03-06T20:07:30;36.7;;;15.5;;
51226;SDS011;42714;48.260;10.980;2024-03-06T20:12:30;39.2;;;16.2;;
51226;SDS011;42714;48.260;10.980;2024-03-06T20:17:30;37.6;;;16.1;;
51226;SDS011;42714;48.260;10.980;2024-03-06T20:22:30;42.1;;;17.3;;
51226;SDS011;42714;48.260;10.980;2024-03-06T20:27:30;41.5;;;18.2;;
51226;SDS011;42714;48.260;10.980;2024-03-06T20:32:30;41.7;;;17.5;;
51226;SDS011;42714;48.260;10.980;2024-03-06T20:37:30;42.9;;;17.8;;
51226;SDS011;42714;48.260;10.980;2024-03-06T20:42:30;38.7;;;16.3;;
51226;SDS011;42714;48.260;10.980;2024-03-06T20:47:30;43.8;;;17.8;;
51226;SDS011;42714;48.260;10.980;2024-03-06T20:52:30;41.4;;;17.4;;
51226;SDS011;42714;48.260;10.980;2024-03-06T20:57:30;43.8;;;18.3;;
51226;SDS011;42714;48.260;10.980;2024-03-06T21:02:30;45.3;;;19.2;;
51226;SDS011;42714;48.260;10.980;2024-03-06T21:07:30;47.8;;;19.6;;
51226;SDS011;42714;48.260;10.980;2024-03-06T21:12:30;44.4;;;18.4;;
51226;SDS011;42714;48.260;10.980;2024-03-06T21:17:30;51.0;;;20.5;;
51226;SDS011;42714;48.260;10.980;2024-03-06T21:22:30;48.5;;;19.6;;
51226;SDS011;42714;48.260;10.980;2024-03-06T21:27:30;45.4;;;19.5;;
51226;SDS011;42714;48.260;10.980;2024-03-06T21:32:30;45.9;;;19.1;;
51226;SDS011;42714;48.260;10.980;2024-03-06T21:37:30;44.9;;;18.9;;
51226;SDS011;42714;48.260;10.980;2024-03-06T21:42:30;59.8;;;23.1;;
51226;SDS011;42714;48.260;10.980;2024-03-06T21:47:30;73.1;;;25.5;;
51226;SDS011;42714;48.260;10.980;2024-03-06T21:52:30;59.4;;;23.4;;
51226;SDS011;42714;48.260;10.980;2024-03-06T21:57:30;60.1;;;23.7;;
51226;SDS011;42714;48.260;10.980;2024-03-06T22:02:30;64.4;;;24.4;;
51226;SDS011;42714;48.260;10.980;2024-03-06T22:07:30;48.2;;;18.3;;
51226;SDS011;42714;48.260;10.980;2024-03-06T22:12:30;57.4;;;23.1;;
51226;SDS011;42714;48.260;10.980;2024-03-06T22:17:30;63.4;;;23.9;;
51226;SDS011;42714;48.260;10.980;2024-03-06T22:22:30;42.7;;;17.6;;
51226;SDS011;42714;48.260;10.980;2024-03-06T22:27:30;52.1;;;19.4;;
51226;SDS011;42714;48.260;10.980;2024-03-06T22:32:30;55.5;;;20.6;;
51226;SDS011;42714;48.260;10.980;2024-03-06T22:37:30;52.2;;;18.3;;
51226;SDS011;42714;48.260;10.980;2024-03-06T22:42:30;58.9;;;22.0;;
51226;SDS011;42714;48.260;10.980;2024-03-06T22:47:30;44.0;;;16.8;;
51226;SDS011;42714;48.260;10.980;2024-03-06T22:52:30;57.4;;;21.0;;
51226;SDS011;42714;48.260;10.980;2024-03-06T22:57:30;56.2;;;21.3;;
51226;SDS011;42714;48.260;10.980;2024-03-06T23:02:30;62.3;;;21.4;;
51226;SDS011;42714;48.260;10.980;2024-03-06T23:07:30;58.8;;;20.8;;
51226;SDS011;42714;48.260;10.980;2024-03-06T23:12:30;59.3;;;22.0;;
51226;SDS011;42714;48.260;10.980;2024-03-06T23:17:30;52.5;;;20.0;;
51226;SDS011;42714;48.260;10.980;2024-03-06T23:22:30;56.1;;;21.3;;
51226;SDS011;42714;48.260;10.980;2024-03-06T23:27:30;55.9;;;21.1;;
51226;SDS011;42714;48.260;10.980;2024-03-06T23:32:30;54.3;;;21.2;;
51226;SDS011;42714;48.260;10.980;2024-03-06T23:37:30;54.3;;;20.4;;
51226;SDS011;42714;48.260;10.980;2024-03-06T23:42:33;62.4;;;22.2;;
51226;SDS011;42714;48.260;10.980;2024-03-06T23:47:30;61.7;;;22.3;;
51226;SDS011;42714;48.260;10.980;2024-03-06T23:52:30;67.8;;;23.2;;
51226;SDS011;42714;48.260;10.980;2024-03-06T23:57:30;63.7;;;22.5;;
